createdAt,value
2022-12-13T00:00:48.268Z,-5.80
2022-12-13T00:03:20.576Z,-5.60
2022-12-13T00:05:55.013Z,-5.70
2022-12-13T00:08:27.445Z,-5.50
2022-12-13T00:11:04.455Z,-5.80
2022-12-13T00:13:37.233Z,-5.80
2022-12-13T00:16:16.230Z,-5.80
2022-12-13T00:18:59.138Z,-6.00
2022-12-13T00:21:34.364Z,-6.00
2022-12-13T00:24:07.280Z,-6.00
2022-12-13T00:26:40.293Z,-5.60
2022-12-13T00:29:12.991Z,-5.70
2022-12-13T00:32:01.609Z,-5.50
2022-12-13T00:34:34.541Z,-5.50
2022-12-13T00:37:06.969Z,-5.10
2022-12-13T00:39:40.174Z,-5.00
2022-12-13T00:42:12.224Z,-4.80
2022-12-13T00:44:44.975Z,-4.80
2022-12-13T00:47:19.383Z,-4.70
2022-12-13T00:49:51.565Z,-4.60
2022-12-13T00:52:24.306Z,-4.60
2022-12-13T00:54:56.456Z,-4.60
2022-12-13T00:57:29.358Z,-4.40
2022-12-13T01:00:01.299Z,-4.50
2022-12-13T01:02:34.350Z,-4.50
2022-12-13T01:05:06.673Z,-4.40
2022-12-13T01:07:44.761Z,-4.30
2022-12-13T01:10:17.088Z,-4.20
2022-12-13T01:12:48.971Z,-4.40
2022-12-13T01:15:21.716Z,-4.40
2022-12-13T01:17:53.596Z,-4.40
2022-12-13T01:23:19.147Z,-4.60
2022-12-13T01:25:52.165Z,-4.50
2022-12-13T01:28:25.513Z,-4.70
2022-12-13T01:31:06.129Z,-4.70
2022-12-13T01:36:31.931Z,-4.70
2022-12-13T01:39:15.662Z,-4.60
2022-12-13T01:42:00.357Z,-4.70
2022-12-13T01:45:38.366Z,-4.60
2022-12-13T01:48:24.322Z,-4.50
2022-12-13T01:51:34.400Z,-4.50
2022-12-13T01:54:11.938Z,-4.50
2022-12-13T01:57:00.697Z,-4.60
2022-12-13T01:59:40.788Z,-4.50
2022-12-13T02:02:15.424Z,-4.40
2022-12-13T02:05:09.116Z,-4.40
2022-12-13T02:07:43.823Z,-4.40
2022-12-13T02:10:16.681Z,-4.40
2022-12-13T02:12:48.657Z,-4.50
2022-12-13T02:15:22.641Z,-4.50
2022-12-13T02:18:09.076Z,-4.50
2022-12-13T02:21:15.813Z,-4.40
2022-12-13T02:24:18.294Z,-4.40
2022-12-13T02:27:31.205Z,-4.40
2022-12-13T02:31:30.184Z,-4.40
2022-12-13T02:34:27.195Z,-4.30
2022-12-13T02:37:20.814Z,-4.30
2022-12-13T02:40:11.066Z,-4.30
2022-12-13T02:43:07.758Z,-4.30
2022-12-13T02:48:39.532Z,-4.20
2022-12-13T02:54:06.505Z,-4.30
2022-12-13T02:56:38.946Z,-4.10
2022-12-13T02:59:15.068Z,-4.00
2022-12-13T03:02:12.545Z,-4.10
2022-12-13T03:05:23.178Z,-4.00
2022-12-13T03:08:12.880Z,-3.90
2022-12-13T03:11:09.977Z,-3.90
2022-12-13T03:13:55.313Z,-4.10
2022-12-13T03:16:53.003Z,-3.90
2022-12-13T03:19:26.474Z,-4.00
2022-12-13T03:21:58.532Z,-4.00
2022-12-13T03:24:31.260Z,-4.00
2022-12-13T03:27:03.269Z,-4.40
2022-12-13T03:29:36.024Z,-4.40
2022-12-13T03:32:07.914Z,-4.20
2022-12-13T03:37:33.450Z,-4.20
2022-12-13T03:40:07.419Z,-4.20
2022-12-13T03:42:41.900Z,-4.20
2022-12-13T03:45:15.136Z,-4.20
2022-12-13T03:47:47.882Z,-4.20
2022-12-13T03:50:26.727Z,-4.20
2022-12-13T03:53:01.772Z,-4.50
2022-12-13T03:55:34.504Z,-4.50
2022-12-13T03:58:08.123Z,-4.50
2022-12-13T04:00:41.125Z,-4.50
2022-12-13T04:03:13.343Z,-4.30
2022-12-13T04:05:46.409Z,-4.40
2022-12-13T04:08:22.192Z,-4.40
2022-12-13T04:10:55.392Z,-4.40
2022-12-13T04:16:06.537Z,-4.20
2022-12-13T04:18:38.898Z,-4.20
2022-12-13T04:21:10.986Z,-4.20
2022-12-13T04:23:43.676Z,-4.30
2022-12-13T04:26:16.065Z,-4.30
2022-12-13T04:28:54.269Z,-4.30
2022-12-13T04:31:26.928Z,-4.40
2022-12-13T04:33:59.666Z,-4.40
2022-12-13T04:36:32.825Z,-4.20
2022-12-13T04:39:22.306Z,-4.40
2022-12-13T04:41:55.239Z,-4.40
2022-12-13T04:44:31.456Z,-4.40
2022-12-13T04:47:06.167Z,-4.40
2022-12-13T04:49:38.902Z,-4.30
2022-12-13T04:52:11.501Z,-4.40
2022-12-13T04:54:43.791Z,-4.40
2022-12-13T04:57:15.665Z,-4.40
2022-12-13T04:59:48.445Z,-4.40
2022-12-13T05:02:23.487Z,-4.30
2022-12-13T05:04:56.393Z,-4.30
2022-12-13T05:07:29.093Z,-4.30
2022-12-13T05:10:00.930Z,-4.50
2022-12-13T05:12:34.196Z,-4.60
2022-12-13T05:15:07.002Z,-4.60
2022-12-13T05:17:39.709Z,-4.90
2022-12-13T05:20:11.698Z,-4.70
2022-12-13T05:22:45.241Z,-4.60
2022-12-13T05:25:17.425Z,-4.70
2022-12-13T05:27:50.552Z,-4.80
2022-12-13T05:30:28.954Z,-4.70
2022-12-13T05:33:01.674Z,-4.80
2022-12-13T05:35:33.882Z,-4.70
2022-12-13T05:38:07.027Z,-4.70
2022-12-13T05:40:39.469Z,-4.60
2022-12-13T05:43:21.277Z,-4.50
2022-12-13T05:45:55.200Z,-4.60
2022-12-13T05:48:27.912Z,-4.60
2022-12-13T05:53:45.254Z,-4.70
2022-12-13T05:56:22.575Z,-5.10
2022-12-13T05:58:55.085Z,-5.10
2022-12-13T06:04:00.602Z,-5.00
2022-12-13T06:06:32.485Z,-4.90
2022-12-13T06:09:05.266Z,-5.00
2022-12-13T06:11:43.523Z,-4.90
2022-12-13T06:14:22.187Z,-5.20
2022-12-13T06:16:55.833Z,-5.10
2022-12-13T06:19:27.981Z,-5.10
2022-12-13T06:22:00.764Z,-4.90
2022-12-13T06:24:33.139Z,-4.90
2022-12-13T06:27:05.786Z,-4.80
2022-12-13T06:29:37.879Z,-4.70
2022-12-13T06:32:10.916Z,-4.70
2022-12-13T06:34:42.789Z,-4.70
2022-12-13T06:39:48.335Z,-5.00
2022-12-13T06:42:22.502Z,-4.70
2022-12-13T06:44:55.795Z,-4.90
2022-12-13T06:47:31.310Z,-4.70
2022-12-13T06:50:06.484Z,-4.60
2022-12-13T06:52:39.629Z,-4.50
2022-12-13T06:55:12.038Z,-4.50
2022-12-13T06:57:44.719Z,-4.60
2022-12-13T07:00:22.369Z,-4.30
2022-12-13T07:02:56.669Z,-4.30
2022-12-13T07:05:28.696Z,-4.20
2022-12-13T07:08:01.495Z,-4.20
2022-12-13T07:10:34.008Z,-4.10
2022-12-13T07:13:06.224Z,-4.00
2022-12-13T07:15:38.964Z,-3.90
2022-12-13T07:18:11.342Z,-4.00
2022-12-13T07:20:44.417Z,-4.00
2022-12-13T07:23:17.762Z,-4.10
2022-12-13T07:25:56.819Z,-4.20
2022-12-13T07:28:29.166Z,-4.40
2022-12-13T07:31:03.270Z,-4.50
2022-12-13T07:33:36.681Z,-4.30
2022-12-13T07:36:17.421Z,-4.20
2022-12-13T07:38:56.105Z,-4.20
2022-12-13T07:41:28.040Z,-4.20
2022-12-13T07:44:00.796Z,-4.30
2022-12-13T07:46:34.056Z,0.50
2022-12-13T07:49:07.039Z,-3.10
2022-12-13T07:51:38.952Z,-3.20
2022-12-13T07:54:11.964Z,-3.60
2022-12-13T07:56:43.869Z,-4.10
2022-12-13T07:59:16.606Z,-4.10
2022-12-13T08:02:01.889Z,-4.00
2022-12-13T08:04:38.129Z,-3.90
2022-12-13T08:07:11.598Z,-3.90
2022-12-13T08:09:46.803Z,-3.90
2022-12-13T08:12:23.870Z,-3.90
2022-12-13T08:14:56.678Z,-4.00
2022-12-13T08:17:31.681Z,-4.10
2022-12-13T08:20:05.585Z,-4.10
2022-12-13T08:22:37.625Z,-3.90
2022-12-13T08:25:11.043Z,-3.80
2022-12-13T08:27:43.276Z,-3.90
2022-12-13T08:30:22.690Z,-3.90
2022-12-13T08:32:55.940Z,-4.10
2022-12-13T08:35:34.030Z,-4.10
2022-12-13T08:38:06.677Z,-4.20
2022-12-13T08:40:39.115Z,-3.90
2022-12-13T08:43:26.156Z,-4.00
2022-12-13T08:48:34.095Z,-3.60
2022-12-13T08:51:24.678Z,-3.60
2022-12-13T08:54:10.992Z,-3.80
2022-12-13T08:56:44.675Z,-4.00
2022-12-13T09:01:53.722Z,-3.60
2022-12-13T09:04:31.180Z,-3.40
2022-12-13T09:07:04.633Z,-3.40
2022-12-13T09:09:36.951Z,-3.00
2022-12-13T09:12:10.530Z,-2.90
2022-12-13T09:14:45.187Z,-2.70
2022-12-13T09:19:58.178Z,-2.80
2022-12-13T09:22:34.039Z,-2.80
2022-12-13T09:25:07.482Z,-2.60
2022-12-13T09:27:47.658Z,-2.60
2022-12-13T09:30:42.432Z,-3.00
2022-12-13T09:36:08.656Z,-2.70
2022-12-13T09:38:41.388Z,-2.60
2022-12-13T09:41:29.706Z,-2.50
2022-12-13T09:44:31.080Z,-2.00
2022-12-13T09:47:23.020Z,-1.90
2022-12-13T09:50:03.959Z,-1.60
2022-12-13T09:52:42.111Z,-1.60
2022-12-13T09:55:29.295Z,-1.60
2022-12-13T09:58:14.258Z,-0.90
2022-12-13T10:00:49.152Z,-0.60
2022-12-13T10:03:24.904Z,-0.40
2022-12-13T10:06:00.872Z,-0.60
2022-12-13T10:08:49.631Z,-0.50
2022-12-13T10:11:31.678Z,-0.80
2022-12-13T10:14:32.008Z,-0.60
2022-12-13T10:17:09.744Z,-0.50
2022-12-13T10:19:46.920Z,-0.90
2022-12-13T10:22:23.072Z,-1.20
2022-12-13T10:25:01.241Z,-1.30
2022-12-13T10:27:36.615Z,-1.30
2022-12-13T10:30:13.995Z,-1.20
2022-12-13T10:33:01.746Z,-1.20
2022-12-13T10:35:37.893Z,-0.80
2022-12-13T10:38:16.823Z,-0.60
2022-12-13T10:40:50.050Z,-0.70
2022-12-13T10:43:26.786Z,-0.70
2022-12-13T10:46:04.183Z,-0.70
2022-12-13T10:48:49.501Z,-0.80
2022-12-13T10:51:22.922Z,-1.20
2022-12-13T10:57:00.666Z,-1.20
2022-12-13T10:59:36.592Z,-1.20
2022-12-13T11:02:40.072Z,-1.50
2022-12-13T11:05:28.026Z,-1.60
2022-12-13T11:08:28.425Z,-2.00
2022-12-13T11:11:13.054Z,-2.00
2022-12-13T11:13:55.677Z,-2.10
2022-12-13T11:16:36.198Z,-1.90
2022-12-13T11:19:16.836Z,-1.80
2022-12-13T11:21:57.577Z,-1.70
2022-12-13T11:24:38.599Z,-1.80
2022-12-13T11:27:37.654Z,-1.90
2022-12-13T11:30:32.327Z,-1.90
2022-12-13T11:33:48.096Z,-1.80
2022-12-13T11:36:51.131Z,-1.70
2022-12-13T11:39:36.371Z,-1.40
2022-12-13T11:42:28.004Z,-1.30
2022-12-13T11:45:28.206Z,-1.10
2022-12-13T11:48:10.033Z,-1.10
2022-12-13T11:50:55.219Z,-1.40
2022-12-13T11:53:57.479Z,-1.40
2022-12-13T11:56:44.507Z,-1.10
2022-12-13T11:59:51.412Z,-0.70
2022-12-13T12:02:31.159Z,-0.90
2022-12-13T12:05:14.844Z,-1.60
2022-12-13T12:08:30.909Z,-2.00
2022-12-13T12:11:01.885Z,-2.40
2022-12-13T12:13:50.786Z,-2.30
2022-12-13T12:16:44.323Z,-2.30
2022-12-13T12:19:20.865Z,-2.20
2022-12-13T12:22:33.269Z,-2.10
2022-12-13T12:25:47.768Z,-2.10
2022-12-13T12:29:12.415Z,-2.20
2022-12-13T12:32:01.184Z,-2.20
2022-12-13T12:34:42.060Z,-2.20
2022-12-13T12:37:30.258Z,-2.10
2022-12-13T12:41:07.062Z,-2.10
2022-12-13T12:43:39.563Z,-2.10
2022-12-13T12:47:18.291Z,-2.10
2022-12-13T12:50:22.442Z,-2.00
2022-12-13T12:53:31.061Z,-2.00
2022-12-13T12:56:25.548Z,-1.90
2022-12-13T12:59:31.922Z,-2.00
2022-12-13T13:02:21.651Z,-2.20
2022-12-13T13:05:09.356Z,-1.90
2022-12-13T13:07:52.218Z,-2.40
2022-12-13T13:10:26.081Z,-2.10
2022-12-13T13:13:12.652Z,-2.10
2022-12-13T13:15:55.704Z,-2.00
2022-12-13T13:18:55.806Z,-1.80
2022-12-13T13:21:35.552Z,-1.70
2022-12-13T13:24:07.733Z,-1.60
2022-12-13T13:27:09.293Z,-1.60
2022-12-13T13:29:43.652Z,-1.60
2022-12-13T13:32:28.580Z,-1.50
2022-12-13T13:35:33.431Z,-1.40
2022-12-13T13:38:29.277Z,-1.30
2022-12-13T13:41:39.249Z,-1.30
2022-12-13T13:44:46.462Z,-1.10
2022-12-13T13:47:22.577Z,-1.20
2022-12-13T13:50:12.469Z,-1.20
2022-12-13T13:52:44.890Z,-1.20
2022-12-13T13:55:29.742Z,-1.30
2022-12-13T13:58:28.626Z,-1.20
2022-12-13T14:01:31.546Z,-1.20
2022-12-13T14:04:48.181Z,-1.10
2022-12-13T14:07:59.331Z,-1.10
2022-12-13T14:10:49.207Z,-1.50
2022-12-13T14:13:45.050Z,-1.50
2022-12-13T14:17:32.852Z,-1.60
2022-12-13T14:20:41.170Z,-1.60
2022-12-13T14:24:00.425Z,-1.60
2022-12-13T14:27:21.324Z,-1.50
2022-12-13T14:29:57.928Z,-1.50
2022-12-13T14:32:37.295Z,-1.60
2022-12-13T14:35:32.520Z,-1.60
2022-12-13T14:38:08.323Z,-1.50
2022-12-13T14:41:01.573Z,-1.50
2022-12-13T14:43:35.380Z,-1.50
2022-12-13T14:46:08.901Z,-1.50
2022-12-13T14:48:54.255Z,-1.60
2022-12-13T14:51:35.188Z,-1.60
2022-12-13T14:54:09.527Z,-1.60
2022-12-13T14:57:02.758Z,-1.50
2022-12-13T14:59:35.154Z,-0.90
2022-12-13T15:02:16.237Z,-1.50
2022-12-13T15:04:48.885Z,-1.70
2022-12-13T15:07:33.496Z,-1.70
2022-12-13T15:10:22.617Z,-1.80
2022-12-13T15:12:56.030Z,-1.60
2022-12-13T15:15:33.700Z,-1.70
2022-12-13T15:18:21.845Z,-1.70
2022-12-13T15:21:00.187Z,-1.70
2022-12-13T15:23:49.348Z,-1.70
2022-12-13T15:26:27.771Z,-1.80
2022-12-13T15:29:09.553Z,-1.90
2022-12-13T15:34:32.932Z,-1.90
2022-12-13T15:37:29.593Z,-1.90
2022-12-13T15:40:09.112Z,-1.70
2022-12-13T15:42:49.274Z,-1.70
2022-12-13T15:45:30.410Z,-1.70
2022-12-13T15:48:07.477Z,-1.80
2022-12-13T15:50:45.396Z,-1.90
2022-12-13T15:53:29.172Z,-1.90
2022-12-13T15:56:07.901Z,-2.00
2022-12-13T15:58:42.291Z,-1.90
2022-12-13T16:01:35.862Z,-1.90
2022-12-13T16:06:42.589Z,-1.90
2022-12-13T16:09:19.367Z,-1.90
2022-12-13T16:12:02.457Z,-1.70
2022-12-13T16:14:48.761Z,-1.60
2022-12-13T16:17:28.362Z,-1.60
2022-12-13T16:20:06.175Z,-1.60
2022-12-13T16:22:42.906Z,-1.60
2022-12-13T16:25:19.629Z,-1.60
2022-12-13T16:27:52.230Z,-1.50
2022-12-13T16:30:28.301Z,-1.60
2022-12-13T16:35:55.913Z,-1.70
2022-12-13T16:41:08.382Z,-1.70
2022-12-13T16:43:58.405Z,-1.80
2022-12-13T16:47:13.812Z,-1.80
2022-12-13T16:49:30.281Z,-1.70
2022-12-13T16:52:06.700Z,-1.60
2022-12-13T16:54:39.498Z,-1.50
2022-12-13T16:57:11.417Z,-1.40
2022-12-13T16:59:44.155Z,-1.40
2022-12-13T17:02:19.325Z,-1.30
2022-12-13T17:04:51.923Z,-1.30
2022-12-13T17:07:24.170Z,-1.30
2022-12-13T17:09:56.806Z,-1.30
2022-12-13T17:12:28.692Z,-1.20
2022-12-13T17:17:34.011Z,-1.20
2022-12-13T17:20:09.106Z,-1.30
2022-12-13T17:25:14.615Z,-1.40
2022-12-13T17:27:46.583Z,-1.40
2022-12-13T17:30:20.550Z,-1.60
2022-12-13T17:32:52.430Z,-1.60
2022-12-13T17:35:27.145Z,-1.50
2022-12-13T17:37:59.164Z,-1.50
2022-12-13T17:40:31.976Z,-1.50
2022-12-13T17:43:03.884Z,-1.40
2022-12-13T17:45:36.172Z,-1.40
2022-12-13T17:48:08.084Z,-1.40
2022-12-13T17:50:40.506Z,-1.30
2022-12-13T17:53:12.380Z,-1.30
2022-12-13T17:55:45.811Z,-1.40
2022-12-13T17:58:17.684Z,-1.40
2022-12-13T18:00:49.941Z,-1.30
2022-12-13T18:03:22.153Z,-1.30
2022-12-13T18:05:59.684Z,-1.20
2022-12-13T18:08:36.168Z,-1.30
2022-12-13T18:11:31.707Z,-1.40
2022-12-13T18:14:02.715Z,-1.40
2022-12-13T18:19:14.190Z,-1.40
2022-12-13T18:21:46.131Z,-1.50
2022-12-13T18:24:18.737Z,-1.60
2022-12-13T18:26:51.034Z,-1.60
2022-12-13T18:29:23.635Z,-1.60
2022-12-13T18:31:55.562Z,-1.50
2022-12-13T18:34:28.724Z,-1.50
2022-12-13T18:37:00.578Z,-1.50
2022-12-13T18:39:34.955Z,-1.50
2022-12-13T18:42:07.275Z,-1.60
2022-12-13T18:44:39.920Z,-1.70
2022-12-13T18:47:15.306Z,-1.50
2022-12-13T18:49:54.926Z,-1.50
2022-12-13T18:52:27.493Z,-1.40
2022-12-13T18:55:00.021Z,-1.40
2022-12-13T18:57:32.174Z,-1.30
2022-12-13T19:00:05.469Z,-1.30
2022-12-13T19:02:38.327Z,-1.40
2022-12-13T19:07:43.587Z,-1.50
2022-12-13T19:10:15.831Z,-1.50
2022-12-13T19:12:47.709Z,-1.40
2022-12-13T19:15:20.552Z,-1.40
2022-12-13T19:17:52.529Z,-1.40
2022-12-13T19:20:25.104Z,-1.60
2022-12-13T19:22:57.675Z,-1.50
2022-12-13T19:25:30.688Z,-1.50
2022-12-13T19:28:02.855Z,-1.50
2022-12-13T19:30:35.492Z,-1.50
2022-12-13T19:33:07.852Z,-1.50
2022-12-13T19:35:43.620Z,-1.40
2022-12-13T19:38:15.494Z,-1.60
2022-12-13T19:40:48.041Z,-1.50
2022-12-13T19:43:21.602Z,-1.50
2022-12-13T19:45:53.853Z,-1.30
2022-12-13T19:48:26.866Z,-1.60
2022-12-13T19:51:00.296Z,-1.60
2022-12-13T19:53:34.008Z,-1.60
2022-12-13T19:56:15.228Z,-1.50
2022-12-13T19:58:49.423Z,-1.40
2022-12-13T20:01:21.378Z,-1.40
2022-12-13T20:03:55.339Z,-1.30
2022-12-13T20:06:27.214Z,-1.20
2022-12-13T20:08:59.763Z,-1.10
2022-12-13T20:14:04.284Z,-1.00
2022-12-13T20:16:36.205Z,-1.00
2022-12-13T20:19:10.522Z,-1.00
2022-12-13T20:21:42.395Z,-0.90
2022-12-13T20:24:15.700Z,-1.00
2022-12-13T20:26:47.626Z,-1.00
2022-12-13T20:29:21.892Z,-1.00
2022-12-13T20:31:54.181Z,-1.00
2022-12-13T20:34:26.792Z,-0.90
2022-12-13T20:36:58.713Z,-1.00
2022-12-13T20:39:31.307Z,-1.10
2022-12-13T20:42:04.369Z,-1.10
2022-12-13T20:44:36.600Z,-1.10
2022-12-13T20:47:08.649Z,-1.10
2022-12-13T20:49:40.640Z,-1.10
2022-12-13T20:52:12.523Z,-1.10
2022-12-13T20:54:45.320Z,-1.10
2022-12-13T20:57:17.367Z,-1.20
2022-12-13T20:59:49.265Z,-1.20
2022-12-13T21:02:21.222Z,-1.20
2022-12-13T21:04:53.749Z,-1.30
2022-12-13T21:07:48.284Z,-1.30
2022-12-13T21:12:53.289Z,-1.40
2022-12-13T21:15:27.263Z,-1.50
2022-12-13T21:17:59.121Z,-1.50
2022-12-13T21:20:31.876Z,-1.50
2022-12-13T21:23:04.839Z,-1.50
2022-12-13T21:25:41.847Z,-1.50
2022-12-13T21:28:14.145Z,-1.50
2022-12-13T21:30:46.439Z,-1.50
2022-12-13T21:33:18.472Z,-1.40
2022-12-13T21:35:51.220Z,-1.30
2022-12-13T21:38:23.549Z,-1.40
2022-12-13T21:40:56.007Z,-1.50
2022-12-13T21:43:37.389Z,-1.40
2022-12-13T21:46:17.119Z,-1.50
2022-12-13T21:48:51.969Z,-1.50
2022-12-13T21:51:27.076Z,-1.40
2022-12-13T21:56:52.504Z,-1.40
2022-12-13T21:59:27.710Z,-1.20
2022-12-13T22:02:20.781Z,-1.30
2022-12-13T22:04:55.451Z,-1.30
2022-12-13T22:07:33.537Z,-1.20
2022-12-13T22:10:07.116Z,-1.30
2022-12-13T22:12:42.048Z,-1.00
2022-12-13T22:15:15.840Z,-1.00
2022-12-13T22:17:48.542Z,-1.00
2022-12-13T22:20:20.468Z,-1.00
2022-12-13T22:22:53.179Z,-0.90
2022-12-13T22:25:25.928Z,-0.80
2022-12-13T22:27:58.640Z,-0.80
2022-12-13T22:30:31.010Z,-0.90
2022-12-13T22:35:37.996Z,-0.90
2022-12-13T22:38:11.233Z,-0.80
2022-12-13T22:40:43.975Z,-0.80
2022-12-13T22:43:20.578Z,-1.20
2022-12-13T22:45:52.980Z,-1.20
2022-12-13T22:48:26.078Z,-1.30
2022-12-13T22:51:06.560Z,-1.20
2022-12-13T22:53:40.862Z,-1.30
2022-12-13T22:56:21.101Z,-1.10
2022-12-13T22:58:55.527Z,-1.10
2022-12-13T23:01:34.174Z,-1.10
2022-12-13T23:04:07.511Z,-1.20
2022-12-13T23:06:40.993Z,-1.20
2022-12-13T23:09:14.161Z,-1.20
2022-12-13T23:12:05.057Z,-1.20
2022-12-13T23:14:37.011Z,-1.20
2022-12-13T23:17:09.984Z,-1.10
2022-12-13T23:19:50.040Z,-1.20
2022-12-13T23:22:26.110Z,-1.10
2022-12-13T23:24:58.633Z,-1.10
2022-12-13T23:27:30.485Z,-1.20
2022-12-13T23:30:03.372Z,-1.20
2022-12-13T23:32:36.344Z,-1.10
2022-12-13T23:35:10.596Z,-1.10
2022-12-13T23:37:42.933Z,-1.20
2022-12-13T23:40:15.855Z,-1.10
2022-12-13T23:42:49.734Z,-1.00
2022-12-13T23:45:22.840Z,-1.00
2022-12-13T23:47:55.595Z,-1.10
2022-12-13T23:50:27.553Z,-1.30
2022-12-13T23:53:00.351Z,-1.30
2022-12-13T23:55:36.927Z,-1.00
2022-12-13T23:58:09.744Z,-1.00
